Time;durP1;ratioP1;P1;durP2;ratioP2;P2;SDS_P1;SDS_P2;PMS_P1;PMS_P2;Temp;Humidity;BMP_temperature;BMP_pressure;BME280_temperature;BME280_humidity;BME280_pressure;Samples;Min_cycle;Max_cycle;Signal;HPM_P1;HPM_P2
2022/01/09 00:00:57;;;;;;;9.05;6.62;;;;;;;0.39;53.78;99264.47;4376662;32;33294;-77
2022/01/09 00:03:26;;;;;;;14.70;7.55;;;;;;;0.42;53.50;99257.28;4378451;32;33423;-77
2022/01/09 00:05:55;;;;;;;14.87;7.82;;;;;;;0.24;54.17;99274.09;4372882;32;32286;-77
2022/01/09 00:08:23;;;;;;;11.23;6.37;;;;;;;0.27;54.04;99255.59;4372074;32;35739;-77
2022/01/09 00:10:53;;;;;;;10.95;5.72;;;;;;;0.41;53.39;99258.19;4384766;32;33724;-77
2022/01/09 00:13:22;;;;;;;11.43;6.90;;;;;;;0.49;53.03;99250.72;4380084;32;34291;-77
2022/01/09 00:15:51;;;;;;;14.43;6.45;;;;;;;-0.13;54.55;99255.47;4381584;32;33323;-77
2022/01/09 00:18:19;;;;;;;13.15;8.02;;;;;;;0.15;54.25;99258.12;4372631;32;34331;-77
2022/01/09 00:20:47;;;;;;;12.85;8.65;;;;;;;0.14;54.00;99254.69;4385696;32;34508;-77
2022/01/09 00:23:15;;;;;;;13.18;8.40;;;;;;;0.03;54.07;99244.00;4385982;32;32530;-77
2022/01/09 00:25:44;;;;;;;27.58;12.20;;;;;;;0.13;53.78;99233.84;4391469;32;32270;-77
2022/01/09 00:28:12;;;;;;;21.42;12.48;;;;;;;0.04;53.96;99237.00;4393099;32;34694;-77
2022/01/09 00:30:42;;;;;;;19.35;10.77;;;;;;;-0.03;54.07;99238.31;4387324;32;35683;-77
2022/01/09 00:33:11;;;;;;;19.10;11.00;;;;;;;0.05;54.02;99228.22;4391780;32;33396;-76
2022/01/09 00:35:41;;;;;;;13.48;7.32;;;;;;;-0.08;54.58;99224.69;4396876;32;33754;-77
2022/01/09 00:38:10;;;;;;;21.90;9.73;;;;;;;-0.11;54.16;99221.41;4373465;32;36899;-77
2022/01/09 00:40:39;;;;;;;16.30;7.62;;;;;;;-0.15;54.48;99235.56;4378317;32;33556;-77
2022/01/09 00:43:09;;;;;;;12.02;6.90;;;;;;;-0.24;54.34;99221.28;4377140;32;32854;-77
2022/01/09 00:45:37;;;;;;;15.73;7.25;;;;;;;-0.32;54.62;99228.75;4383715;32;32624;-77
2022/01/09 00:48:06;;;;;;;26.30;9.75;;;;;;;-0.31;55.03;99224.37;4364523;32;34489;-77
2022/01/09 00:50:36;;;;;;;14.85;8.63;;;;;;;-0.13;54.51;99224.09;4372777;32;32983;-77
2022/01/09 00:53:06;;;;;;;12.20;7.62;;;;;;;-0.12;54.18;99217.13;4384824;32;32820;-77
2022/01/09 00:55:34;;;;;;;14.63;8.88;;;;;;;-0.15;54.30;99212.91;4382045;32;33838;-77
2022/01/09 00:58:03;;;;;;;16.00;7.93;;;;;;;-0.08;54.28;99201.16;4371688;32;34364;-77
2022/01/09 01:00:35;;;;;;;9.40;5.80;;;;;;;-0.31;54.92;99201.69;4395181;32;33139;-77
2022/01/09 01:03:03;;;;;;;14.25;6.78;;;;;;;-0.58;56.13;99205.09;4386841;32;32964;-77
2022/01/09 01:05:33;;;;;;;12.00;5.93;;;;;;;-0.30;55.69;99200.75;4377179;32;33901;-77
2022/01/09 01:08:01;;;;;;;9.82;6.32;;;;;;;-0.37;55.87;99196.84;4381212;32;36351;-77
2022/01/09 01:10:30;;;;;;;11.45;5.80;;;;;;;-0.25;55.96;99185.66;4393419;32;33953;-77
2022/01/09 01:12:59;;;;;;;13.55;7.53;;;;;;;-0.31;56.31;99183.38;4386362;32;34350;-77
2022/01/09 01:15:27;;;;;;;9.90;6.65;;;;;;;-0.06;55.66;99170.53;4372855;32;32863;-77
2022/01/09 01:17:55;;;;;;;10.25;7.30;;;;;;;-0.11;55.90;99167.34;4406286;32;34962;-76
2022/01/09 01:20:24;;;;;;;15.43;7.30;;;;;;;-0.08;56.12;99164.56;4392547;32;35067;-76
2022/01/09 01:22:52;;;;;;;15.52;8.88;;;;;;;-0.03;55.96;99155.50;4394674;32;33284;-77
2022/01/09 01:25:21;;;;;;;20.30;9.15;;;;;;;0.11;55.64;99154.66;4377970;32;32720;-76
2022/01/09 01:27:50;;;;;;;13.55;7.03;;;;;;;0.09;55.62;99148.66;4379664;32;34931;-77
2022/01/09 01:30:18;;;;;;;13.50;7.05;;;;;;;0.07;55.41;99145.28;4385449;32;34900;-77
2022/01/09 01:32:46;;;;;;;11.63;7.25;;;;;;;0.17;55.04;99142.03;4378487;32;32002;-77
2022/01/09 01:35:18;;;;;;;10.15;6.03;;;;;;;0.31;54.61;99141.16;4384953;32;32623;-77
2022/01/09 01:37:45;;;;;;;;;;;;;;;0.12;54.99;99133.59;4394413;32;35539;-78
2022/01/09 01:40:16;;;;;;;10.07;6.55;;;;;;;0.03;55.44;99136.78;4388443;32;34461;-77
2022/01/09 01:42:46;;;;;;;9.35;5.10;;;;;;;-0.01;55.47;99126.63;4376591;32;32170;-77
2022/01/09 01:45:14;;;;;;;7.97;4.57;;;;;;;0.04;55.28;99122.78;4378452;32;34728;-77
2022/01/09 01:47:46;;;;;;;10.18;6.50;;;;;;;0.11;54.84;99123.25;4410183;32;35042;-77
2022/01/09 01:50:16;;;;;;;15.18;5.80;;;;;;;0.14;54.43;99120.44;4398149;32;35678;-77
2022/01/09 01:52:49;;;;;;;12.90;6.40;;;;;;;-0.01;54.73;99124.00;4393478;32;33538;-77
2022/01/09 01:55:18;;;;;;;10.50;5.57;;;;;;;0.03;54.47;99117.66;4386795;32;33184;-77
2022/01/09 01:57:46;;;;;;;7.93;5.72;;;;;;;0.09;54.24;99122.50;4385269;32;33836;-78
2022/01/09 02:00:17;;;;;;;14.90;6.80;;;;;;;-0.40;55.67;99116.00;4386060;32;34951;-77
2022/01/09 02:02:45;;;;;;;9.82;5.75;;;;;;;-0.31;55.47;99107.59;4374299;32;33459;-78
2022/01/09 02:05:30;;;;;;;10.65;5.15;;;;;;;-0.20;54.86;99113.00;4375579;32;34632;-77
2022/01/09 02:08:02;;;;;;;10.75;6.32;;;;;;;-0.42;55.48;99109.19;4384749;32;33098;-77
2022/01/09 02:10:30;;;;;;;18.20;5.68;;;;;;;-0.15;54.53;99108.34;4398804;32;36861;-77
2022/01/09 02:12:58;;;;;;;12.75;6.60;;;;;;;-0.26;54.52;99102.94;4411731;32;33150;-77
2022/01/09 02:15:33;;;;;;;16.12;6.80;;;;;;;-0.43;54.81;99100.53;4400443;32;35286;-77
2022/01/09 02:18:10;;;;;;;15.32;6.85;;;;;;;-0.36;54.57;99094.00;4407855;32;34840;-78
2022/01/09 02:20:39;;;;;;;12.57;6.25;;;;;;;-0.29;54.44;99104.91;4387805;32;35454;-77
2022/01/09 02:23:18;;;;;;;10.10;6.47;;;;;;;-0.67;55.23;99088.09;4363949;32;34136;-77
2022/01/09 02:25:47;;;;;;;9.50;5.65;;;;;;;-0.71;55.85;99091.81;4386799;32;33773;-78
2022/01/09 02:28:16;;;;;;;15.57;5.75;;;;;;;-0.72;55.61;99090.16;4377251;32;35646;-77
2022/01/09 02:30:46;;;;;;;12.00;6.35;;;;;;;-0.72;55.21;99080.56;4392147;32;33738;-78
2022/01/09 02:33:16;;;;;;;14.38;6.47;;;;;;;-0.53;54.60;99088.09;4379779;32;31924;-77
2022/01/09 02:35:51;;;;;;;9.77;6.22;;;;;;;-0.44;54.16;99085.78;4391013;32;34156;-77
2022/01/09 02:38:20;;;;;;;12.20;6.70;;;;;;;-0.59;54.25;99084.09;4390465;32;33943;-77
2022/01/09 02:40:53;;;;;;;14.30;7.30;;;;;;;-0.70;54.78;99083.91;4361741;32;34283;-77
2022/01/09 02:43:23;;;;;;;10.45;6.70;;;;;;;-1.20;55.97;99080.84;4373859;32;32683;-79
2022/01/09 02:48:40;;;;;;;15.48;7.40;;;;;;;-1.23;56.30;99072.34;4400319;32;34975;-77
2022/01/09 02:51:15;;;;;;;9.50;7.18;;;;;;;-1.16;56.02;99073.66;4375550;32;33898;-78
2022/01/09 02:53:47;;;;;;;9.27;6.50;;;;;;;-1.03;55.31;99072.00;4388665;32;33404;-77
2022/01/09 02:56:16;;;;;;;12.10;7.60;;;;;;;-1.08;55.18;99069.69;4396514;32;32241;-77
2022/01/09 02:58:44;;;;;;;;;;;;;;;-0.91;54.55;99068.66;4397022;32;34913;-77
2022/01/09 03:01:13;;;;;;;11.90;7.28;;;;;;;-1.12;55.13;99075.16;4374740;32;35383;-78
2022/01/09 03:03:42;;;;;;;12.00;6.50;;;;;;;-1.52;56.34;99075.78;4388282;32;32075;-78
2022/01/09 03:06:10;;;;;;;;;;;;;;;-1.13;55.35;99066.47;4377511;32;34061;-77
2022/01/09 03:08:38;;;;;;;13.45;6.72;;;;;;;-1.12;55.22;99070.78;4391856;32;35867;-77
2022/01/09 03:11:07;;;;;;;10.77;7.30;;;;;;;-1.19;55.21;99066.00;4388334;32;34343;-77
2022/01/09 03:13:44;;;;;;;19.20;8.48;;;;;;;-1.24;55.24;99063.66;4378647;32;33352;-77
2022/01/09 03:16:12;;;;;;;13.10;8.88;;;;;;;-1.15;54.68;99054.47;4405021;32;33142;-77
2022/01/09 03:18:40;;;;;;;;;;;;;;;-1.27;54.68;99050.81;4382012;32;34541;-77
2022/01/09 03:21:12;;;;;;;10.60;6.87;;;;;;;-1.32;54.69;99049.41;4362806;32;35393;-77
2022/01/09 03:23:44;;;;;;;12.52;6.10;;;;;;;-1.56;55.46;99049.03;4383956;32;34019;-77
2022/01/09 03:26:13;;;;;;;18.37;7.80;;;;;;;-1.40;55.07;99042.00;4383470;32;33337;-78
2022/01/09 03:28:44;;;;;;;11.48;6.15;;;;;;;-1.37;54.83;99044.44;4389021;32;36197;-77
2022/01/09 03:31:12;;;;;;;12.90;6.75;;;;;;;-1.45;55.09;99045.81;4389364;32;34972;-77
2022/01/09 03:33:40;;;;;;;12.20;6.93;;;;;;;-1.45;55.06;99041.44;4395769;32;33288;-77
2022/01/09 03:36:08;;;;;;;10.38;5.55;;;;;;;-1.89;56.63;99044.91;4390519;32;33899;-77
2022/01/09 03:38:36;;;;;;;16.55;6.80;;;;;;;-1.77;56.31;99042.41;4387677;32;35416;-77
2022/01/09 03:41:04;;;;;;;17.12;8.18;;;;;;;-1.80;56.24;99041.78;4363720;32;33217;-77
2022/01/09 03:43:34;;;;;;;10.93;5.62;;;;;;;-1.76;56.09;99046.75;4371652;32;33133;-78
2022/01/09 03:46:06;;;;;;;10.30;5.40;;;;;;;-1.72;55.63;99048.22;4377709;32;32997;-77
2022/01/09 03:48:36;;;;;;;12.93;6.72;;;;;;;-1.97;55.93;99047.91;4400333;32;35038;-78
2022/01/09 03:51:05;;;;;;;14.15;6.68;;;;;;;-2.09;56.84;99052.97;4384798;32;34410;-77
2022/01/09 03:53:33;;;;;;;14.07;6.80;;;;;;;-1.92;56.97;99045.91;4385363;32;33260;-78
2022/01/09 03:56:02;;;;;;;16.37;8.52;;;;;;;-2.41;58.70;99046.06;4387289;32;32615;-77
2022/01/09 03:58:30;;;;;;;20.50;9.15;;;;;;;-2.16;58.56;99046.44;4374848;32;33957;-78
2022/01/09 04:00:58;;;;;;;20.10;9.35;;;;;;;-1.95;58.06;99047.84;4382879;32;33767;-78
2022/01/09 04:03:26;;;;;;;15.85;8.43;;;;;;;-1.94;58.00;99033.87;4387494;32;32219;-78
2022/01/09 04:06:00;;;;;;;17.30;8.02;;;;;;;-1.38;55.99;99026.25;4372207;32;32121;-78
2022/01/09 04:08:29;;;;;;;22.42;10.23;;;;;;;-1.72;57.20;99027.38;4379067;32;33934;-77
2022/01/09 04:11:07;;;;;;;11.10;7.37;;;;;;;-1.60;56.78;99018.84;4398568;32;34431;-78
2022/01/09 04:13:37;;;;;;;21.80;8.65;;;;;;;-1.98;58.08;99009.75;4410416;32;33392;-77
2022/01/09 04:16:05;;;;;;;11.02;6.65;;;;;;;-2.35;59.40;99020.53;4407059;32;34421;-78
2022/01/09 04:18:33;;;;;;;17.33;7.47;;;;;;;-2.10;58.63;99007.84;4372746;32;33615;-78
2022/01/09 04:21:02;;;;;;;14.60;8.88;;;;;;;-1.96;57.81;99013.09;4384735;32;33185;-77
2022/01/09 04:23:34;;;;;;;20.65;10.52;;;;;;;-1.90;56.94;99014.56;4371927;32;33442;-77
2022/01/09 04:26:13;;;;;;;18.77;9.60;;;;;;;-2.39;57.76;99012.97;4379708;32;35323;-77
2022/01/09 04:28:41;;;;;;;21.75;10.05;;;;;;;-2.24;57.14;99004.31;4373283;32;36089;-77
2022/01/09 04:31:12;;;;;;;21.92;9.23;;;;;;;-2.53;57.51;99011.13;4380021;32;34403;-78
2022/01/09 04:33:42;;;;;;;22.17;10.82;;;;;;;-2.51;58.08;99009.28;4389489;32;33675;-77
2022/01/09 04:36:12;;;;;;;14.50;9.52;;;;;;;-2.64;58.25;99007.44;4358189;32;33038;-77
2022/01/09 04:38:41;;;;;;;14.95;9.38;;;;;;;-2.36;57.45;99012.81;4389878;32;34677;-78
2022/01/09 04:41:09;;;;;;;14.15;7.45;;;;;;;-2.69;58.41;99004.22;4395561;32;34437;-77
2022/01/09 04:43:37;;;;;;;20.40;9.77;;;;;;;-2.46;57.71;98998.62;4388180;32;33445;-77
2022/01/09 04:46:06;;;;;;;21.12;9.45;;;;;;;-2.32;57.23;98994.34;4369789;32;33857;-78
2022/01/09 04:48:35;;;;;;;12.57;7.45;;;;;;;-2.43;57.26;98998.44;4394835;32;35490;-77
2022/01/09 04:51:04;;;;;;;15.82;7.12;;;;;;;-2.12;56.03;98986.25;4392407;32;33769;-77
2022/01/09 04:53:34;;;;;;;17.05;8.45;;;;;;;-2.04;55.73;98993.63;4393912;32;32674;-78
2022/01/09 04:56:01;;;;;;;;;;;;;;;-2.71;57.77;99000.84;4377334;32;33896;-77
2022/01/09 04:58:29;;;;;;;11.90;6.85;;;;;;;-2.56;57.47;98997.41;4401737;32;36510;-78
2022/01/09 05:00:59;;;;;;;15.20;6.85;;;;;;;-2.53;57.35;99002.47;4380869;32;33417;-78
2022/01/09 05:03:27;;;;;;;11.95;6.45;;;;;;;-2.61;57.69;98989.84;4396640;32;32901;-78
2022/01/09 05:05:55;;;;;;;12.27;6.93;;;;;;;-2.54;57.61;98991.22;4398306;32;33419;-78
2022/01/09 05:08:24;;;;;;;15.98;6.78;;;;;;;-2.45;57.57;98998.53;4380280;32;35000;-77
2022/01/09 05:10:52;;;;;;;12.77;6.53;;;;;;;-2.56;57.80;98997.41;4386497;32;34018;-77
2022/01/09 05:13:20;;;;;;;15.90;8.90;;;;;;;-2.25;56.76;98995.66;4386571;32;33562;-78
2022/01/09 05:15:49;;;;;;;13.23;7.10;;;;;;;-2.31;57.05;99000.38;4397226;32;33281;-77
2022/01/09 05:18:17;;;;;;;13.07;6.82;;;;;;;-2.40;56.96;99004.34;4399660;32;34655;-77
2022/01/09 05:20:45;;;;;;;;;;;;;;;-2.25;56.42;99006.06;4386177;32;34144;-78
2022/01/09 05:23:13;;;;;;;12.70;5.68;;;;;;;-2.54;57.21;99006.84;4377413;32;33491;-77
2022/01/09 05:25:41;;;;;;;;;;;;;;;-2.49;57.47;99004.84;4394709;32;33318;-77
2022/01/09 05:28:10;;;;;;;10.82;5.70;;;;;;;-2.29;56.62;99001.97;4408256;32;35264;-78
2022/01/09 05:30:40;;;;;;;11.50;6.78;;;;;;;-2.95;58.65;98999.53;4387256;32;33953;-77
2022/01/09 05:33:08;;;;;;;10.10;5.10;;;;;;;-2.55;57.11;98999.12;4372146;32;34085;-77
2022/01/09 05:35:36;;;;;;;9.82;6.35;;;;;;;-2.49;57.01;98997.03;4405750;32;33155;-77
2022/01/09 05:38:07;;;;;;;16.23;7.00;;;;;;;-2.39;56.21;98995.59;4385449;32;34234;-77
2022/01/09 05:40:35;;;;;;;16.25;5.82;;;;;;;-2.31;55.47;98989.94;4374571;32;34957;-77
2022/01/09 05:43:04;;;;;;;12.98;5.80;;;;;;;-2.50;55.78;98989.28;4384251;32;34464;-77
2022/01/09 05:45:33;;;;;;;12.88;8.65;;;;;;;-2.70;56.15;98990.34;4386444;32;33842;-77
2022/01/09 05:48:02;;;;;;;14.15;6.57;;;;;;;-2.62;55.98;98990.78;4374238;32;36019;-77
2022/01/09 05:50:30;;;;;;;13.52;8.13;;;;;;;-2.69;56.62;98993.81;4407953;32;33575;-77
2022/01/09 05:52:59;;;;;;;15.70;6.85;;;;;;;-2.90;57.23;98989.75;4394711;32;33515;-77
2022/01/09 05:55:29;;;;;;;12.57;6.55;;;;;;;-2.76;57.30;98982.03;4384535;32;33913;-77
2022/01/09 05:57:57;;;;;;;18.10;8.02;;;;;;;-2.81;57.08;98974.47;4390824;32;35948;-77
2022/01/09 06:00:26;;;;;;;12.15;6.10;;;;;;;-3.00;57.97;98972.09;4407113;32;34377;-77
2022/01/09 06:02:54;;;;;;;12.88;6.72;;;;;;;-2.80;57.39;98977.94;4373241;32;33523;-78
2022/01/09 06:05:24;;;;;;;14.95;6.95;;;;;;;-2.77;56.59;98985.56;4379091;32;33586;-77
2022/01/09 06:07:55;;;;;;;16.12;6.90;;;;;;;-2.95;57.06;98983.94;4369801;32;34110;-77
2022/01/09 06:10:24;;;;;;;17.30;7.78;;;;;;;-3.13;56.97;98981.47;4386126;32;34394;-78
2022/01/09 06:12:56;;;;;;;13.35;7.93;;;;;;;-3.20;57.30;98977.50;4386978;32;33177;-77
2022/01/09 06:15:35;;;;;;;15.82;8.52;;;;;;;-3.04;57.16;98981.00;4396086;32;33211;-78
2022/01/09 06:18:05;;;;;;;11.18;7.18;;;;;;;-3.16;57.50;98979.87;4387097;32;34983;-78
2022/01/09 06:20:36;;;;;;;17.12;8.45;;;;;;;-2.84;56.69;98976.38;4385332;32;33139;-79
2022/01/09 06:23:06;;;;;;;11.32;7.07;;;;;;;-2.75;56.08;98978.50;4401669;32;32238;-78
2022/01/09 06:25:36;;;;;;;13.52;7.25;;;;;;;-2.78;55.95;98975.25;4384543;32;34187;-79
2022/01/09 06:28:05;;;;;;;12.90;8.35;;;;;;;-3.03;56.90;98975.69;4402130;32;35876;-78
2022/01/09 06:30:47;;;;;;;15.82;8.48;;;;;;;-2.89;56.58;98983.62;4388205;32;34357;-78
2022/01/09 06:33:28;;;;;;;11.32;6.10;;;;;;;-2.76;55.89;98982.03;4369939;32;34055;-78
2022/01/09 06:36:02;;;;;;;13.77;7.65;;;;;;;-2.76;55.51;98982.03;4379569;32;33823;-79
2022/01/09 06:38:38;;;;;;;18.67;8.43;;;;;;;-3.00;56.12;98987.69;4392410;32;34295;-78
2022/01/09 06:41:12;;;;;;;17.37;8.85;;;;;;;-3.14;57.03;98985.81;4405300;32;33955;-78
2022/01/09 06:43:44;;;;;;;14.87;7.95;;;;;;;-2.98;56.71;98983.25;4403926;32;32806;-79
2022/01/09 06:46:15;;;;;;;14.15;8.27;;;;;;;-3.05;56.94;98989.72;4382414;32;33822;-78
2022/01/09 06:49:02;;;;;;;16.23;7.87;;;;;;;-3.18;57.40;98986.06;4381110;32;34762;-78
2022/01/09 06:51:36;;;;;;;11.85;7.43;;;;;;;-3.33;58.28;98986.87;4405769;32;33797;-78
2022/01/09 06:54:10;;;;;;;10.30;6.82;;;;;;;-3.05;57.06;98980.13;4379052;32;32222;-77
2022/01/09 06:56:45;;;;;;;14.43;7.03;;;;;;;-3.12;57.38;98983.97;4403522;32;33359;-79
2022/01/09 06:59:17;;;;;;;12.60;8.90;;;;;;;-2.91;56.28;98972.47;4411523;32;34613;-79
2022/01/09 07:01:52;;;;;;;16.95;8.02;;;;;;;-2.88;56.49;98982.69;4405127;32;35279;-79
2022/01/09 07:04:30;;;;;;;14.40;7.35;;;;;;;-2.92;56.58;98983.78;4379157;32;33201;-79
2022/01/09 07:07:02;;;;;;;14.18;9.00;;;;;;;-2.97;56.61;98987.53;4376820;32;32542;-79
2022/01/09 07:09:35;;;;;;;13.50;7.03;;;;;;;-2.97;56.44;98984.94;4361794;32;34820;-79
2022/01/09 07:12:07;;;;;;;13.32;8.38;;;;;;;-3.20;58.26;98980.97;4384926;32;34313;-79
2022/01/09 07:15:04;;;;;;;11.07;6.62;;;;;;;-3.14;58.32;98990.19;4377832;32;35216;-79
2022/01/09 07:17:40;;;;;;;16.25;6.43;;;;;;;-2.70;57.06;98989.53;4386092;32;33616;-79
2022/01/09 07:20:14;;;;;;;11.88;7.25;;;;;;;-2.60;56.46;98988.09;4410657;32;34966;-79
2022/01/09 07:22:45;;;;;;;17.12;8.35;;;;;;;-3.01;58.70;98991.22;4385274;32;33538;-79
2022/01/09 07:25:18;;;;;;;12.35;6.65;;;;;;;-3.30;60.00;98989.31;4398805;32;34221;-79
2022/01/09 07:27:53;;;;;;;18.48;8.55;;;;;;;-3.18;60.73;98993.84;4388957;32;33648;-78
2022/01/09 07:30:26;;;;;;;15.43;9.82;;;;;;;-3.06;60.55;98988.03;4384308;32;34110;-78
2022/01/09 07:32:58;;;;;;;19.60;11.25;;;;;;;-2.79;60.03;98984.81;4398678;32;34945;-78
2022/01/09 07:35:31;;;;;;;25.55;12.80;;;;;;;-2.63;59.61;98988.28;4379912;32;33915;-77
2022/01/09 07:38:03;;;;;;;21.67;12.50;;;;;;;-2.51;59.26;98979.78;4384875;32;33550;-77
2022/01/09 07:40:37;;;;;;;22.30;13.18;;;;;;;-2.25;58.33;98969.59;4378955;32;34537;-79
2022/01/09 07:43:05;;;;;;;23.38;13.90;;;;;;;-2.37;58.70;98970.28;4372344;32;34635;-77
2022/01/09 07:45:39;;;;;;;25.35;13.45;;;;;;;-2.32;59.01;98968.28;4397263;32;33979;-76
2022/01/09 07:48:10;;;;;;;16.42;11.15;;;;;;;-2.30;59.37;98970.78;4373649;32;33539;-77
2022/01/09 07:50:42;;;;;;;20.70;12.63;;;;;;;-2.14;58.98;98963.81;4398494;32;35048;-78
2022/01/09 07:53:12;;;;;;;23.30;10.30;;;;;;;-2.06;58.77;98969.44;4387327;32;33630;-78
2022/01/09 07:55:44;;;;;;;26.73;12.18;;;;;;;-1.78;58.33;98962.53;4375368;32;32684;-77
2022/01/09 07:58:15;;;;;;;24.75;13.40;;;;;;;-1.71;58.61;98963.03;4386540;32;33178;-77
2022/01/09 08:00:46;;;;;;;28.40;14.73;;;;;;;-1.57;58.90;98963.91;4376887;32;35083;-77
2022/01/09 08:03:20;;;;;;;30.25;12.80;;;;;;;-1.61;59.42;98970.22;4383856;32;34046;-78
2022/01/09 08:05:52;;;;;;;25.92;13.07;;;;;;;-1.71;60.53;98974.31;4382454;32;33588;-79
2022/01/09 08:08:21;;;;;;;30.90;13.30;;;;;;;-1.66;61.04;98977.50;4384185;32;32662;-75
2022/01/09 08:10:52;;;;;;;33.50;18.50;;;;;;;-1.43;60.89;98963.13;4396346;32;34944;-77
2022/01/09 08:13:23;;;;;;;28.27;16.42;;;;;;;-1.59;61.83;98964.94;4389310;32;33086;-77
2022/01/09 08:16:00;;;;;;;21.73;14.87;;;;;;;-1.83;63.02;98961.97;4383333;32;33142;-77
2022/01/09 08:18:31;;;;;;;20.80;11.32;;;;;;;-1.60;63.03;98964.06;4406844;32;33851;-77
2022/01/09 08:21:00;;;;;;;29.63;14.25;;;;;;;-1.64;63.36;98965.19;4363879;32;34614;-77
2022/01/09 08:23:38;;;;;;;22.10;12.13;;;;;;;-1.44;63.26;98959.66;4397407;32;34394;-77
2022/01/09 08:26:07;;;;;;;31.90;16.27;;;;;;;-1.64;64.11;98954.78;4385715;32;33169;-77
2022/01/09 08:28:35;;;;;;;27.23;13.85;;;;;;;-2.00;65.72;98948.22;4383970;32;33426;-77
2022/01/09 08:31:11;;;;;;;22.83;11.77;;;;;;;-1.88;65.57;98947.53;4388449;32;35057;-77
2022/01/09 08:33:45;;;;;;;22.25;13.23;;;;;;;-1.58;64.83;98956.19;4369189;32;33244;-77
2022/01/09 08:36:14;;;;;;;22.15;14.50;;;;;;;-1.69;65.07;98959.41;4392242;32;33225;-77
2022/01/09 08:38:43;;;;;;;20.60;12.82;;;;;;;-1.54;64.95;98966.34;4358856;32;32639;-77
2022/01/09 08:41:13;;;;;;;28.48;14.43;;;;;;;-1.20;64.77;98963.41;4393209;32;36633;-77
2022/01/09 08:43:44;;;;;;;24.42;13.38;;;;;;;-0.92;63.76;98968.66;4399525;32;32638;-77
2022/01/09 08:46:15;;;;;;;21.95;13.02;;;;;;;-0.90;64.01;98968.53;4387533;32;32781;-78
2022/01/09 08:48:43;;;;;;;28.62;14.10;;;;;;;-0.69;63.44;98977.69;4374195;32;34390;-78
2022/01/09 08:51:15;;;;;;;26.33;13.18;;;;;;;-0.69;63.98;98977.69;4397848;32;34930;-77
2022/01/09 08:53:56;;;;;;;19.92;12.70;;;;;;;-0.38;62.76;98956.53;4389786;32;34016;-77
2022/01/09 08:56:48;;;;;;;23.67;11.63;;;;;;;-0.37;63.28;98961.69;4388956;32;33629;-76
2022/01/09 08:59:17;;;;;;;21.73;12.40;;;;;;;-0.31;62.52;98966.50;4374805;32;32872;-77
2022/01/09 09:01:48;;;;;;;19.98;12.02;;;;;;;-0.29;62.59;98956.78;4398892;32;33909;-77
2022/01/09 09:04:35;;;;;;;22.05;13.85;;;;;;;-0.10;62.17;98961.69;4391451;32;33800;-77
2022/01/09 09:07:09;;;;;;;33.30;16.70;;;;;;;-0.18;62.66;98958.72;4384573;32;32947;-78
2022/01/09 09:09:48;;;;;;;17.92;12.13;;;;;;;-0.02;62.35;98948.03;4395934;32;33736;-78
2022/01/09 09:12:41;;;;;;;28.23;12.32;;;;;;;-0.10;62.96;98951.22;4399224;32;34420;-78
2022/01/09 09:15:13;;;;;;;23.15;14.13;;;;;;;0.05;63.09;98949.31;4389242;32;34290;-78
2022/01/09 09:17:49;;;;;;;22.15;11.82;;;;;;;0.33;61.97;98966.63;4406374;32;33370;-77
2022/01/09 09:20:44;;;;;;;21.65;14.30;;;;;;;0.52;61.64;98967.94;4383380;32;33831;-77
2022/01/09 09:23:16;;;;;;;27.75;14.40;;;;;;;0.61;61.06;98964.69;4394274;32;33883;-78
2022/01/09 09:25:49;;;;;;;20.85;12.40;;;;;;;0.46;62.09;98975.31;4377555;32;34080;-77
2022/01/09 09:28:18;;;;;;;26.52;14.05;;;;;;;0.64;60.92;98969.72;4381587;32;33516;-78
2022/01/09 09:30:52;;;;;;;19.05;10.70;;;;;;;0.53;61.22;98968.75;4396552;32;32992;-78
2022/01/09 09:33:21;;;;;;;20.88;12.48;;;;;;;0.33;61.77;98977.09;4381242;32;34804;-78
2022/01/09 09:35:52;;;;;;;23.15;12.27;;;;;;;0.51;61.86;98975.88;4369625;32;33486;-78
2022/01/09 09:38:24;;;;;;;26.58;16.33;;;;;;;0.86;60.76;98975.16;4381362;32;32156;-78
2022/01/09 09:40:58;;;;;;;26.92;12.00;;;;;;;0.66;61.05;98970.44;4392559;32;32979;-78
2022/01/09 09:43:28;;;;;;;22.50;13.35;;;;;;;0.40;62.34;98965.28;4390740;32;33750;-79
2022/01/09 09:45:57;;;;;;;21.02;12.37;;;;;;;0.53;62.32;98977.47;4374630;32;33151;-78
2022/01/09 09:48:26;;;;;;;23.60;13.60;;;;;;;1.25;59.41;98975.03;4394015;32;33429;-78
2022/01/09 09:50:55;;;;;;;21.02;13.00;;;;;;;0.98;61.05;98973.50;4410762;32;33973;-78
2022/01/09 09:53:24;;;;;;;20.35;12.65;;;;;;;1.14;60.27;98966.28;4376974;32;35217;-78
2022/01/09 09:55:53;;;;;;;25.73;13.62;;;;;;;0.71;61.67;98967.53;4378696;32;33245;-78
2022/01/09 09:58:24;;;;;;;23.90;12.68;;;;;;;0.90;61.08;98974.03;4385000;32;32786;-79
2022/01/09 10:00:54;;;;;;;21.10;13.18;;;;;;;1.09;60.99;98978.84;4379306;32;32712;-78
2022/01/09 10:03:32;;;;;;;30.45;13.85;;;;;;;1.42;59.21;98971.28;4402398;32;36119;-78
2022/01/09 10:06:02;;;;;;;20.10;10.20;;;;;;;1.52;57.92;98975.75;4370223;32;35274;-79
2022/01/09 10:08:39;;;;;;;27.30;13.77;;;;;;;1.29;59.15;98984.38;4398652;32;31950;-78
2022/01/09 10:11:17;;;;;;;33.72;15.48;;;;;;;1.84;57.96;98986.56;4386326;32;33965;-79
2022/01/09 10:14:10;;;;;;;28.48;14.73;;;;;;;1.50;57.92;98982.06;4401539;32;35113;-79
2022/01/09 10:17:05;;;;;;;27.30;15.40;;;;;;;1.63;57.96;98981.09;4395732;32;34514;-78
2022/01/09 10:20:22;;;;;;;22.65;14.18;;;;;;;1.27;58.69;98983.66;4395303;32;33105;-78
2022/01/09 10:22:55;;;;;;;24.75;12.55;;;;;;;1.59;59.03;98976.16;4391152;32;34061;-78
2022/01/09 10:25:32;;;;;;;19.87;11.25;;;;;;;1.81;57.13;98982.38;4385336;32;35545;-77
2022/01/09 10:28:14;;;;;;;23.45;11.60;;;;;;;1.82;57.94;98976.22;4396102;32;34124;-77
2022/01/09 10:30:50;;;;;;;23.80;14.27;;;;;;;2.29;56.24;98975.38;4388553;32;33266;-77
2022/01/09 10:33:22;;;;;;;24.58;14.90;;;;;;;2.06;56.67;98966.53;4408173;32;33925;-78
2022/01/09 10:35:51;;;;;;;25.70;13.82;;;;;;;2.29;55.86;98964.87;4374911;32;35102;-76
2022/01/09 10:38:27;;;;;;;27.13;13.85;;;;;;;1.73;57.51;98962.91;4374655;32;34325;-76
2022/01/09 10:41:03;;;;;;;25.58;15.40;;;;;;;1.88;57.74;98969.69;4374183;32;32479;-76
2022/01/09 10:43:41;;;;;;;23.77;14.65;;;;;;;1.97;57.45;98950.66;4407365;32;32688;-76
2022/01/09 10:46:12;;;;;;;27.15;14.23;;;;;;;1.83;58.08;98956.03;4399639;32;35264;-76
2022/01/09 10:48:44;;;;;;;26.92;13.80;;;;;;;1.79;58.08;98941.50;4400510;32;34707;-76
2022/01/09 10:51:14;;;;;;;29.48;13.05;;;;;;;2.04;57.50;98938.75;4384033;32;33909;-76
2022/01/09 10:53:53;;;;;;;23.65;11.38;;;;;;;1.79;58.48;98937.06;4403953;32;33928;-76
2022/01/09 10:56:28;;;;;;;28.80;12.48;;;;;;;2.03;57.57;98937.06;4393695;32;37014;-76
2022/01/09 10:59:00;;;;;;;26.50;12.77;;;;;;;2.09;57.77;98941.87;4397895;32;33830;-76
2022/01/09 11:01:32;;;;;;;23.85;12.65;;;;;;;1.75;58.76;98934.78;4378789;32;31939;-76
2022/01/09 11:04:06;;;;;;;24.58;11.73;;;;;;;1.90;58.42;98931.88;4400488;32;34800;-76
2022/01/09 11:06:38;;;;;;;27.02;13.70;;;;;;;1.99;58.23;98927.78;4398525;32;34657;-77
2022/01/09 11:09:08;;;;;;;21.75;11.25;;;;;;;2.41;56.45;98924.59;4366133;32;34760;-75
2022/01/09 11:11:51;;;;;;;27.90;12.77;;;;;;;2.48;57.29;98920.56;4388574;32;32632;-76
2022/01/09 11:14:27;;;;;;;23.48;12.30;;;;;;;2.50;56.54;98910.75;4395657;32;34539;-76
2022/01/09 11:16:59;;;;;;;18.65;10.13;;;;;;;2.39;56.83;98911.59;4406822;32;34689;-76
2022/01/09 11:19:29;;;;;;;26.17;12.45;;;;;;;2.49;56.60;98914.34;4379858;32;34509;-77
2022/01/09 11:22:02;;;;;;;19.17;10.85;;;;;;;2.80;55.35;98919.78;4410093;32;33487;-76
2022/01/09 11:25:08;;;;;;;19.92;10.02;;;;;;;2.87;55.93;98921.81;4387650;32;34330;-76
2022/01/09 11:28:03;;;;;;;17.67;9.40;;;;;;;2.92;54.86;98916.22;4398920;32;35150;-76
2022/01/09 11:30:53;;;;;;;19.17;11.02;;;;;;;2.73;55.13;98911.53;4384525;32;33429;-76
2022/01/09 11:33:48;;;;;;;15.13;10.05;;;;;;;2.49;55.61;98922.22;4389233;32;33388;-76
2022/01/09 11:36:19;;;;;;;21.60;11.80;;;;;;;2.69;54.61;98919.78;4393397;32;32910;-76
2022/01/09 11:39:11;;;;;;;22.10;11.70;;;;;;;2.91;54.78;98917.16;4374120;32;34316;-76
2022/01/09 11:47:51;;;;;;;16.45;9.13;;;;;;;2.90;54.66;98907.62;3154560;27;33524;-81
2022/01/09 11:50:19;;;;;;;17.20;10.45;;;;;;;2.97;54.42;98896.53;4415547;32;34399;-84
2022/01/09 11:52:58;;;;;;;35.58;10.20;;;;;;;2.88;54.32;98912.16;4416221;32;33599;-84
2022/01/09 11:55:41;;;;;;;20.23;10.75;;;;;;;3.07;54.89;98897.50;4399338;32;31926;-82
2022/01/09 11:58:11;;;;;;;18.90;10.30;;;;;;;3.16;53.63;98901.19;4419215;32;33859;-85